createdAt,value
2022-10-25T00:00:55.981Z,94044.84
2022-10-25T00:02:06.582Z,94044.66
2022-10-25T00:03:10.461Z,94043.16
2022-10-25T00:04:13.837Z,94042.39
2022-10-25T00:05:17.261Z,94039.85
2022-10-25T00:06:20.186Z,94039.52
2022-10-25T00:07:23.283Z,94040.30
2022-10-25T00:08:27.083Z,94043.98
2022-10-25T00:09:30.079Z,94045.52
2022-10-25T00:10:33.726Z,94043.41
2022-10-25T00:11:36.836Z,94050.64
2022-10-25T00:12:46.142Z,94042.90
2022-10-25T00:13:50.821Z,94044.52
2022-10-25T00:14:54.723Z,94038.42
2022-10-25T00:15:57.813Z,94036.83
2022-10-25T00:17:01.169Z,94040.46
2022-10-25T00:18:04.297Z,94039.29
2022-10-25T00:19:07.290Z,94040.95
2022-10-25T00:20:11.396Z,94038.66
2022-10-25T00:21:14.410Z,94042.14
2022-10-25T00:22:17.587Z,94038.60
2022-10-25T00:23:20.512Z,94042.92
2022-10-25T00:24:23.867Z,94043.63
2022-10-25T00:25:26.922Z,94041.52
2022-10-25T00:26:29.851Z,94044.17
2022-10-25T00:27:34.778Z,94047.52
2022-10-25T00:28:37.695Z,94047.34
2022-10-25T00:29:41.400Z,94051.52
2022-10-25T00:30:44.541Z,94048.66
2022-10-25T00:31:47.815Z,94051.65
2022-10-25T00:32:52.931Z,94053.42
2022-10-25T00:33:55.911Z,94056.23
2022-10-25T00:34:59.665Z,94059.10
2022-10-25T00:36:05.879Z,94054.48
2022-10-25T00:37:08.892Z,94059.63
2022-10-25T00:38:11.905Z,94062.27
2022-10-25T00:39:17.176Z,94064.00
2022-10-25T00:40:20.371Z,94063.79
2022-10-25T00:41:25.148Z,94064.18
2022-10-25T00:42:28.335Z,94061.80
2022-10-25T00:43:51.293Z,94058.57
2022-10-25T00:44:56.709Z,94058.82
2022-10-25T00:47:09.906Z,94062.54
2022-10-25T00:48:12.881Z,94062.84
2022-10-25T00:49:18.896Z,94062.97
2022-10-25T00:50:24.539Z,94065.05
2022-10-25T00:51:36.427Z,94066.55
2022-10-25T00:52:40.646Z,94067.14
2022-10-25T00:53:43.730Z,94063.08
2022-10-25T00:54:49.552Z,94060.15
2022-10-25T00:55:56.714Z,94060.41
2022-10-25T00:57:01.403Z,94056.61
2022-10-25T00:58:07.468Z,94058.71
2022-10-25T00:59:12.698Z,94054.90
2022-10-25T01:00:15.746Z,94054.81
2022-10-25T01:01:19.030Z,94051.86
2022-10-25T01:02:22.552Z,94046.85
2022-10-25T01:03:25.875Z,94049.30
2022-10-25T01:04:31.103Z,94053.27
2022-10-25T01:05:35.724Z,94055.26
2022-10-25T01:06:40.125Z,94053.23
2022-10-25T01:07:43.341Z,94057.41
2022-10-25T01:08:50.881Z,94060.15
2022-10-25T01:09:53.942Z,94059.34
2022-10-25T01:10:57.196Z,94057.81
2022-10-25T01:12:00.546Z,94059.39
2022-10-25T01:13:04.110Z,94059.69
2022-10-25T01:14:09.251Z,94062.77
2022-10-25T01:15:12.419Z,94062.34
2022-10-25T01:16:22.870Z,94063.42
2022-10-25T01:17:44.331Z,94067.62
2022-10-25T01:18:53.268Z,94071.75
2022-10-25T01:20:14.058Z,94070.73
2022-10-25T01:21:37.433Z,94076.92
2022-10-25T01:22:40.311Z,94077.95
2022-10-25T01:23:43.379Z,94078.00
2022-10-25T01:25:07.949Z,94080.19
2022-10-25T01:26:28.961Z,94075.10
2022-10-25T01:27:50.892Z,94072.63
2022-10-25T01:29:27.153Z,94072.40
2022-10-25T01:30:40.651Z,94061.67
2022-10-25T01:31:58.158Z,94059.25
2022-10-25T01:33:19.747Z,94060.61
2022-10-25T01:34:43.096Z,94054.80
2022-10-25T01:35:53.857Z,94054.70
2022-10-25T01:36:59.812Z,94054.66
2022-10-25T01:38:07.000Z,94053.55
2022-10-25T01:39:16.751Z,94055.44
2022-10-25T01:40:22.551Z,94056.49
2022-10-25T01:41:33.503Z,94056.20
2022-10-25T01:42:46.817Z,94054.55
2022-10-25T01:44:12.526Z,94057.73
2022-10-25T01:45:19.715Z,94058.17
2022-10-25T01:46:45.741Z,94060.48
2022-10-25T01:47:51.601Z,94066.12
2022-10-25T01:49:15.009Z,94065.73
2022-10-25T01:50:21.182Z,94074.03
2022-10-25T01:51:26.628Z,94073.90
2022-10-25T01:52:29.882Z,94073.28
2022-10-25T01:53:33.070Z,94074.09
2022-10-25T01:54:36.469Z,94077.61
2022-10-25T01:56:05.710Z,94074.71
2022-10-25T01:57:21.345Z,94076.99
2022-10-25T01:58:30.355Z,94076.39
2022-10-25T01:59:43.889Z,94074.97
2022-10-25T02:01:05.754Z,94080.22
2022-10-25T02:02:27.666Z,94079.83
2022-10-25T02:03:45.847Z,94080.65
2022-10-25T02:05:10.486Z,94081.98
2022-10-25T02:06:16.748Z,94079.48
2022-10-25T02:07:39.301Z,94080.00
2022-10-25T02:08:54.133Z,94079.02
2022-10-25T02:10:00.176Z,94077.69
2022-10-25T02:11:05.267Z,94077.91
2022-10-25T02:12:11.172Z,94076.86
2022-10-25T02:13:22.066Z,94077.78
2022-10-25T02:14:51.686Z,94071.41
2022-10-25T02:16:00.858Z,94073.35
2022-10-25T02:17:07.414Z,94077.65
2022-10-25T02:18:13.283Z,94080.21
2022-10-25T02:19:18.891Z,94078.95
2022-10-25T02:20:24.072Z,94079.60
2022-10-25T02:21:28.166Z,94083.27
2022-10-25T02:22:32.769Z,94078.54
2022-10-25T02:23:36.940Z,94076.83
2022-10-25T02:24:43.326Z,94077.48
2022-10-25T02:25:47.760Z,94069.84
2022-10-25T02:26:51.042Z,94070.52
2022-10-25T02:27:55.443Z,94066.20
2022-10-25T02:29:00.107Z,94064.04
2022-10-25T02:30:03.779Z,94057.54
2022-10-25T02:31:09.926Z,94063.83
2022-10-25T02:32:14.606Z,94069.38
2022-10-25T02:33:17.732Z,94073.80
2022-10-25T02:34:21.293Z,94078.02
2022-10-25T02:35:24.295Z,94082.54
2022-10-25T02:36:27.537Z,94084.12
2022-10-25T02:37:34.220Z,94085.38
2022-10-25T02:38:37.836Z,94083.59
2022-10-25T02:39:40.966Z,94083.89
2022-10-25T02:40:44.051Z,94083.59
2022-10-25T02:41:47.163Z,94081.65
2022-10-25T02:42:52.726Z,94081.44
2022-10-25T02:43:55.767Z,94077.30
2022-10-25T02:45:01.248Z,94076.83
2022-10-25T02:46:10.220Z,94079.29
2022-10-25T02:47:13.253Z,94084.48
2022-10-25T02:48:16.252Z,94089.71
2022-10-25T02:49:19.607Z,94085.59
2022-10-25T02:50:22.605Z,94091.40
2022-10-25T02:51:25.605Z,94089.33
2022-10-25T02:52:29.396Z,94090.69
2022-10-25T02:53:32.601Z,94087.02
2022-10-25T02:54:35.665Z,94088.83
2022-10-25T02:55:38.946Z,94089.25
2022-10-25T02:56:41.979Z,94092.63
2022-10-25T02:57:45.051Z,94093.30
2022-10-25T02:58:49.379Z,94089.73
2022-10-25T02:59:52.373Z,94096.98
2022-10-25T03:00:55.387Z,94091.38
2022-10-25T03:01:58.654Z,94092.70
2022-10-25T03:03:01.868Z,94091.38
2022-10-25T03:04:04.846Z,94092.59
2022-10-25T03:05:08.068Z,94091.27
2022-10-25T03:06:11.642Z,94090.86
2022-10-25T03:07:14.800Z,94094.09
2022-10-25T03:08:18.079Z,94092.11
2022-10-25T03:09:21.351Z,94094.10
2022-10-25T03:10:24.278Z,94093.77
2022-10-25T03:11:27.418Z,94094.25
2022-10-25T03:12:30.417Z,94097.81
2022-10-25T03:13:33.661Z,94094.64
2022-10-25T03:14:39.761Z,94099.37
2022-10-25T03:15:43.571Z,94102.08
2022-10-25T03:17:54.754Z,94099.41
2022-10-25T03:18:58.617Z,94101.14
2022-10-25T03:20:01.691Z,94100.46
2022-10-25T03:21:05.670Z,94099.62
2022-10-25T03:22:08.636Z,94096.49
2022-10-25T03:23:11.988Z,94097.05
2022-10-25T03:24:15.641Z,94099.39
2022-10-25T03:25:18.686Z,94096.86
2022-10-25T03:26:21.969Z,94095.96
2022-10-25T03:27:25.311Z,94095.25
2022-10-25T03:28:29.236Z,94092.88
2022-10-25T03:29:32.420Z,94092.89
2022-10-25T03:30:36.318Z,94087.43
2022-10-25T03:31:40.205Z,94091.42
2022-10-25T03:32:43.841Z,94092.98
2022-10-25T03:33:47.027Z,94091.92
2022-10-25T03:34:50.269Z,94097.06
2022-10-25T03:35:54.222Z,94097.42
2022-10-25T03:36:58.851Z,94098.50
2022-10-25T03:38:02.074Z,94100.65
2022-10-25T03:39:09.256Z,94099.50
2022-10-25T03:40:12.405Z,94099.91
2022-10-25T03:41:15.450Z,94096.50
2022-10-25T03:42:18.591Z,94096.88
2022-10-25T03:44:29.741Z,94099.27
2022-10-25T03:45:32.865Z,94098.85
2022-10-25T03:46:36.190Z,94102.09
2022-10-25T03:47:39.871Z,94102.04
2022-10-25T03:48:42.911Z,94102.81
2022-10-25T03:49:46.145Z,94104.44
2022-10-25T03:50:49.446Z,94106.84
2022-10-25T03:51:55.785Z,94107.69
2022-10-25T03:53:01.858Z,94109.59
2022-10-25T03:54:04.921Z,94108.61
2022-10-25T03:55:08.497Z,94111.77
2022-10-25T03:56:11.531Z,94112.96
2022-10-25T03:57:14.546Z,94116.04
2022-10-25T03:58:17.743Z,94112.16
2022-10-25T03:59:20.666Z,94113.10
2022-10-25T04:00:23.736Z,94114.04
2022-10-25T04:01:29.430Z,94112.60
2022-10-25T04:02:32.715Z,94109.45
2022-10-25T04:03:38.345Z,94099.48
2022-10-25T04:04:41.339Z,94107.46
2022-10-25T04:05:44.371Z,94102.30
2022-10-25T04:06:47.436Z,94104.58
2022-10-25T04:07:50.536Z,94104.61
2022-10-25T04:08:53.617Z,94107.48
2022-10-25T04:09:56.912Z,94105.34
2022-10-25T04:10:59.906Z,94111.59
2022-10-25T04:12:02.894Z,94111.70
2022-10-25T04:13:06.125Z,94121.20
2022-10-25T04:14:09.171Z,94122.01
2022-10-25T04:15:12.425Z,94126.43
2022-10-25T04:16:19.053Z,94127.60
2022-10-25T04:17:22.574Z,94130.15
2022-10-25T04:18:25.582Z,94132.58
2022-10-25T04:19:28.632Z,94130.77
2022-10-25T04:20:31.610Z,94134.36
2022-10-25T04:21:34.776Z,94138.21
2022-10-25T04:23:40.967Z,94140.52
2022-10-25T04:24:44.240Z,94142.62
2022-10-25T04:25:47.328Z,94145.49
2022-10-25T04:26:50.293Z,94150.70
2022-10-25T04:27:53.586Z,94149.52
2022-10-25T04:28:56.880Z,94149.91
2022-10-25T04:29:59.921Z,94153.90
2022-10-25T04:31:03.467Z,94151.05
2022-10-25T04:32:06.854Z,94150.83
2022-10-25T04:33:09.837Z,94151.47
2022-10-25T04:34:12.852Z,94149.88
2022-10-25T04:35:15.946Z,94150.37
2022-10-25T04:36:19.270Z,94148.94
2022-10-25T04:37:22.439Z,94151.95
2022-10-25T04:38:25.483Z,94150.73
2022-10-25T04:39:28.532Z,94152.77
2022-10-25T04:40:31.957Z,94150.95
2022-10-25T04:41:35.125Z,94153.36
2022-10-25T04:42:38.166Z,94153.06
2022-10-25T04:43:41.191Z,94151.58
2022-10-25T04:44:44.443Z,94152.84
2022-10-25T04:45:47.398Z,94158.27
2022-10-25T04:46:51.932Z,94156.59
2022-10-25T04:47:55.187Z,94157.08
2022-10-25T04:48:58.376Z,94159.95
2022-10-25T04:50:02.137Z,94160.98
2022-10-25T04:51:05.882Z,94160.50
2022-10-25T04:52:08.885Z,94155.61
2022-10-25T04:53:11.990Z,94157.57
2022-10-25T04:54:15.100Z,94156.27
2022-10-25T04:55:18.087Z,94156.14
2022-10-25T04:56:21.220Z,94155.75
2022-10-25T04:57:25.291Z,94160.38
2022-10-25T04:58:31.330Z,94162.02
2022-10-25T04:59:35.065Z,94162.65
2022-10-25T05:00:38.208Z,94160.90
2022-10-25T05:01:41.499Z,94164.41
2022-10-25T05:02:44.831Z,94161.79
2022-10-25T05:03:54.081Z,94155.18
2022-10-25T05:04:57.035Z,94162.81
2022-10-25T05:06:12.701Z,94163.93
2022-10-25T05:07:19.577Z,94160.77
2022-10-25T05:08:22.635Z,94165.44
2022-10-25T05:09:25.834Z,94164.29
2022-10-25T05:10:28.948Z,94161.79
2022-10-25T05:11:33.095Z,94163.97
2022-10-25T05:12:36.271Z,94156.67
2022-10-25T05:13:40.432Z,94160.41
2022-10-25T05:14:44.291Z,94161.02
2022-10-25T05:15:56.983Z,94160.30
2022-10-25T05:17:00.431Z,94159.02
2022-10-25T05:18:03.432Z,94160.63
2022-10-25T05:19:06.665Z,94165.02
2022-10-25T05:20:09.944Z,94160.08
2022-10-25T05:21:13.623Z,94159.97
2022-10-25T05:22:16.705Z,94159.70
2022-10-25T05:23:19.691Z,94157.65
2022-10-25T05:24:22.930Z,94160.06
2022-10-25T05:25:26.066Z,94159.34
2022-10-25T05:26:29.570Z,94163.63
2022-10-25T05:27:36.595Z,94164.99
2022-10-25T05:28:40.366Z,94162.08
2022-10-25T05:29:43.453Z,94167.31
2022-10-25T05:30:46.566Z,94163.76
2022-10-25T05:31:49.629Z,94164.51
2022-10-25T05:32:52.700Z,94165.39
2022-10-25T05:34:00.291Z,94166.98
2022-10-25T05:35:03.401Z,94165.27
2022-10-25T05:36:09.126Z,94159.97
2022-10-25T05:37:12.259Z,94163.87
2022-10-25T05:38:15.357Z,94159.18
2022-10-25T05:39:18.598Z,94163.67
2022-10-25T05:40:21.631Z,94160.10
2022-10-25T05:41:24.793Z,94160.00
2022-10-25T05:42:27.983Z,94158.23
2022-10-25T05:43:31.018Z,94161.33
2022-10-25T05:44:34.130Z,94161.90
2022-10-25T05:45:37.384Z,94162.89
2022-10-25T05:46:40.827Z,94160.27
2022-10-25T05:47:43.837Z,94166.70
2022-10-25T05:48:49.010Z,94169.85
2022-10-25T05:49:52.355Z,94179.45
2022-10-25T05:51:03.436Z,94177.35
2022-10-25T05:52:17.508Z,94181.80
2022-10-25T05:53:20.763Z,94191.10
2022-10-25T05:54:24.466Z,94188.38
2022-10-25T05:55:27.607Z,94184.90
2022-10-25T05:56:35.864Z,94190.08
2022-10-25T05:57:39.003Z,94191.84
2022-10-25T05:58:42.393Z,94194.73
2022-10-25T05:59:45.428Z,94200.03
2022-10-25T06:00:51.193Z,94197.80
2022-10-25T06:01:54.489Z,94200.66
2022-10-25T06:03:00.681Z,94200.98
2022-10-25T06:04:03.810Z,94199.08
2022-10-25T06:05:07.105Z,94196.62
2022-10-25T06:06:11.484Z,94200.29
2022-10-25T06:07:14.523Z,94199.98
2022-10-25T06:08:17.588Z,94199.45
2022-10-25T06:09:20.544Z,94200.83
2022-10-25T06:10:23.586Z,94199.12
2022-10-25T06:11:27.047Z,94201.63
2022-10-25T06:12:30.041Z,94206.41
2022-10-25T06:13:33.646Z,94203.10
2022-10-25T06:14:36.687Z,94206.66
2022-10-25T06:15:39.780Z,94206.20
2022-10-25T06:16:42.775Z,94208.08
2022-10-25T06:17:45.808Z,94208.80
2022-10-25T06:18:48.846Z,94208.45
2022-10-25T06:19:52.244Z,94209.15
2022-10-25T06:20:56.268Z,94208.83
2022-10-25T06:21:59.190Z,94206.42
2022-10-25T06:23:02.127Z,94207.20
2022-10-25T06:24:05.383Z,94206.24
2022-10-25T06:25:08.662Z,94211.48
2022-10-25T06:26:15.925Z,94215.21
2022-10-25T06:27:19.237Z,94213.55
2022-10-25T06:28:22.226Z,94214.90
2022-10-25T06:29:25.257Z,94213.25
2022-10-25T06:30:28.305Z,94212.97
2022-10-25T06:31:32.318Z,94213.41
2022-10-25T06:32:38.217Z,94215.61
2022-10-25T06:33:41.711Z,94219.53
2022-10-25T06:34:44.757Z,94217.86
2022-10-25T06:35:47.850Z,94219.35
2022-10-25T06:36:50.985Z,94223.19
2022-10-25T06:37:56.272Z,94227.40
2022-10-25T06:39:05.416Z,94224.40
2022-10-25T06:40:10.248Z,94228.64
2022-10-25T06:41:14.346Z,94230.89
2022-10-25T06:42:17.465Z,94234.36
2022-10-25T06:43:23.168Z,94234.72
2022-10-25T06:44:26.210Z,94235.46
2022-10-25T06:45:29.236Z,94235.88
2022-10-25T06:46:33.987Z,94237.66
2022-10-25T06:47:36.944Z,94237.43
2022-10-25T06:48:39.957Z,94238.79
2022-10-25T06:49:42.956Z,94238.28
2022-10-25T06:50:48.541Z,94235.62
2022-10-25T06:51:54.742Z,94240.81
2022-10-25T06:52:58.018Z,94239.98
2022-10-25T06:54:02.150Z,94240.36
2022-10-25T06:55:05.984Z,94239.23
2022-10-25T06:56:14.189Z,94237.55
2022-10-25T06:57:17.785Z,94239.59
2022-10-25T06:58:20.824Z,94238.63
2022-10-25T06:59:26.348Z,94239.30
2022-10-25T07:00:29.334Z,94237.97
2022-10-25T07:01:32.472Z,94240.07
2022-10-25T07:02:35.797Z,94239.34
2022-10-25T07:03:39.140Z,94235.13
2022-10-25T07:04:42.032Z,94237.08
2022-10-25T07:05:45.087Z,94236.83
2022-10-25T07:06:51.369Z,94235.41
2022-10-25T07:07:57.503Z,94235.60
2022-10-25T07:09:00.704Z,94234.45
2022-10-25T07:10:10.037Z,94236.08
2022-10-25T07:11:15.177Z,94243.27
2022-10-25T07:12:18.242Z,94241.24
2022-10-25T07:13:21.431Z,94239.12
2022-10-25T07:14:24.376Z,94239.50
2022-10-25T07:15:27.349Z,94235.91
2022-10-25T07:16:30.710Z,94238.31
2022-10-25T07:17:34.022Z,94240.81
2022-10-25T07:18:37.461Z,94234.58
2022-10-25T07:19:41.074Z,94236.41
2022-10-25T07:20:48.872Z,94233.52
2022-10-25T07:21:52.061Z,94226.98
2022-10-25T07:22:59.266Z,94224.66
2022-10-25T07:24:03.794Z,94221.70
2022-10-25T07:26:16.800Z,94225.77
2022-10-25T07:27:20.887Z,94223.22
2022-10-25T07:28:24.496Z,94222.90
2022-10-25T07:29:27.557Z,94223.77
2022-10-25T07:30:30.591Z,94224.63
2022-10-25T07:31:35.365Z,94223.60
2022-10-25T07:32:41.617Z,94228.06
2022-10-25T07:33:45.674Z,94225.82
2022-10-25T07:34:48.715Z,94227.70
2022-10-25T07:36:05.839Z,94232.23
2022-10-25T07:37:09.415Z,94230.35
2022-10-25T07:38:13.013Z,94233.59
2022-10-25T07:39:16.058Z,94235.60
2022-10-25T07:40:19.133Z,94235.33
2022-10-25T07:41:22.130Z,94240.36
2022-10-25T07:42:25.098Z,94236.80
2022-10-25T07:43:28.674Z,94237.36
2022-10-25T07:44:31.707Z,94233.70
2022-10-25T07:45:34.833Z,94231.36
2022-10-25T07:46:38.064Z,94234.66
2022-10-25T07:47:41.097Z,94228.88
2022-10-25T07:48:44.262Z,94230.23
2022-10-25T07:49:47.324Z,94227.02
2022-10-25T07:50:50.789Z,94237.01
2022-10-25T07:51:53.921Z,94234.27
2022-10-25T07:52:57.797Z,94235.77
2022-10-25T07:54:00.872Z,94234.61
2022-10-25T07:55:08.397Z,94234.27
2022-10-25T07:56:18.829Z,94237.39
2022-10-25T07:57:25.320Z,94238.54
2022-10-25T07:58:28.306Z,94239.02
2022-10-25T07:59:31.531Z,94241.98
2022-10-25T08:00:35.560Z,94244.74
2022-10-25T08:01:38.636Z,94251.73
2022-10-25T08:02:42.836Z,94253.05
2022-10-25T08:03:45.913Z,94254.35
2022-10-25T08:04:51.056Z,94249.92
2022-10-25T08:05:56.840Z,94245.73
2022-10-25T08:07:01.607Z,94242.96
2022-10-25T08:08:05.552Z,94241.59
2022-10-25T08:09:20.315Z,94240.20
2022-10-25T08:10:29.693Z,94241.94
2022-10-25T08:11:32.613Z,94241.48
2022-10-25T08:12:43.401Z,94235.41
2022-10-25T08:13:48.285Z,94232.73
2022-10-25T08:14:51.402Z,94228.45
2022-10-25T08:15:57.441Z,94227.58
2022-10-25T08:17:00.568Z,94225.50
2022-10-25T08:18:04.377Z,94227.24
2022-10-25T08:19:07.461Z,94228.09
2022-10-25T08:20:13.060Z,94230.59
2022-10-25T08:21:16.716Z,94233.83
2022-10-25T08:22:19.746Z,94234.02
2022-10-25T08:23:23.769Z,94239.02
2022-10-25T08:24:26.938Z,94235.52
2022-10-25T08:25:30.362Z,94232.18
2022-10-25T08:26:36.723Z,94230.16
2022-10-25T08:27:41.323Z,94229.23
2022-10-25T08:28:44.433Z,94236.33
2022-10-25T08:29:49.310Z,94233.34
2022-10-25T08:30:53.310Z,94229.91
2022-10-25T08:31:59.699Z,94228.35
2022-10-25T08:33:02.853Z,94225.90
2022-10-25T08:34:06.070Z,94227.39
2022-10-25T08:35:09.274Z,94226.13
2022-10-25T08:36:12.276Z,94224.00
2022-10-25T08:37:15.837Z,94224.58
2022-10-25T08:38:18.883Z,94222.26
2022-10-25T08:39:21.856Z,94218.65
2022-10-25T08:40:26.411Z,94214.98
2022-10-25T08:41:49.756Z,94215.10
2022-10-25T08:42:55.611Z,94215.03
2022-10-25T08:44:31.191Z,94216.12
2022-10-25T08:45:40.220Z,94217.90
2022-10-25T08:46:49.147Z,94220.73
2022-10-25T08:47:53.437Z,94229.23
2022-10-25T08:49:04.999Z,94228.76
2022-10-25T08:50:13.961Z,94229.64
2022-10-25T08:51:26.126Z,94233.66
2022-10-25T08:52:49.671Z,94229.36
2022-10-25T08:55:07.966Z,94228.69
2022-10-25T08:56:16.892Z,94226.64
2022-10-25T08:57:28.247Z,94225.95
2022-10-25T08:58:38.504Z,94231.16
2022-10-25T08:59:43.278Z,94232.06
2022-10-25T09:00:48.141Z,94231.45
2022-10-25T09:01:58.029Z,94233.70
2022-10-25T09:03:01.946Z,94238.38
2022-10-25T09:04:08.441Z,94234.82
2022-10-25T09:05:29.753Z,94234.05
2022-10-25T09:06:34.176Z,94241.67
2022-10-25T09:07:41.986Z,94242.43
2022-10-25T09:09:01.314Z,94241.52
2022-10-25T09:10:13.366Z,94242.52
2022-10-25T09:11:28.185Z,94245.11
2022-10-25T09:12:37.326Z,94244.45
2022-10-25T09:13:40.319Z,94244.35
2022-10-25T09:14:48.586Z,94239.65
2022-10-25T09:16:01.410Z,94238.77
2022-10-25T09:17:25.442Z,94239.40
2022-10-25T09:18:36.846Z,94240.43
2022-10-25T09:19:46.218Z,94240.05
2022-10-25T09:20:50.942Z,94239.91
2022-10-25T09:21:59.377Z,94242.27
2022-10-25T09:23:25.313Z,94242.14
2022-10-25T09:24:54.087Z,94247.80
2022-10-25T09:26:00.184Z,94242.69
2022-10-25T09:27:14.694Z,94244.23
2022-10-25T09:28:21.726Z,94248.27
2022-10-25T09:29:36.841Z,94244.79
2022-10-25T09:30:41.940Z,94242.02
2022-10-25T09:31:49.021Z,94248.92
2022-10-25T09:32:57.047Z,94247.77
2022-10-25T09:34:04.095Z,94246.28
2022-10-25T09:35:13.902Z,94246.01
2022-10-25T09:36:17.396Z,94245.85
2022-10-25T09:37:29.272Z,94242.48
2022-10-25T09:38:42.128Z,94245.09
2022-10-25T09:39:47.441Z,94246.38
2022-10-25T09:41:02.244Z,94236.16
2022-10-25T09:42:07.699Z,94239.04
2022-10-25T09:43:17.478Z,94240.78
2022-10-25T09:44:33.102Z,94242.69
2022-10-25T09:45:42.199Z,94248.02
2022-10-25T09:46:47.971Z,94249.23
2022-10-25T09:47:53.585Z,94246.45
2022-10-25T09:49:02.814Z,94247.11
2022-10-25T09:50:15.841Z,94249.36
2022-10-25T09:51:30.656Z,94245.48
2022-10-25T09:52:37.068Z,94247.80
2022-10-25T09:53:42.308Z,94245.26
2022-10-25T09:55:03.886Z,94245.90
2022-10-25T09:56:10.198Z,94241.40
2022-10-25T09:57:13.250Z,94240.48
2022-10-25T09:58:22.591Z,94243.30
2022-10-25T09:59:28.309Z,94243.98
2022-10-25T10:00:33.952Z,94247.70
2022-10-25T10:01:39.194Z,94239.88
2022-10-25T10:02:42.959Z,94240.52
2022-10-25T10:03:48.872Z,94243.48
2022-10-25T10:04:55.627Z,94241.26
2022-10-25T10:06:14.009Z,94248.73
2022-10-25T10:07:33.071Z,94253.00
2022-10-25T10:08:36.490Z,94253.74
2022-10-25T10:09:44.917Z,94259.69
2022-10-25T10:10:49.961Z,94252.56
2022-10-25T10:11:54.227Z,94250.36
2022-10-25T10:13:16.194Z,94247.09
2022-10-25T10:14:33.838Z,94245.23
2022-10-25T10:15:39.465Z,94241.55
2022-10-25T10:16:45.331Z,94241.64
2022-10-25T10:17:48.584Z,94240.44
2022-10-25T10:18:52.896Z,94247.02
2022-10-25T10:20:10.381Z,94242.17
2022-10-25T10:21:16.190Z,94242.27
2022-10-25T10:22:19.406Z,94241.55
2022-10-25T10:23:22.487Z,94240.98
2022-10-25T10:24:33.816Z,94239.98
2022-10-25T10:25:36.884Z,94241.17
2022-10-25T10:26:49.215Z,94240.98
2022-10-25T10:27:54.941Z,94239.64
2022-10-25T10:29:18.330Z,94240.91
2022-10-25T10:30:25.478Z,94241.94
2022-10-25T10:31:34.193Z,94242.41
2022-10-25T10:32:39.123Z,94239.94
2022-10-25T10:33:47.237Z,94235.89
2022-10-25T10:34:54.574Z,94236.90
2022-10-25T10:36:17.521Z,94233.98
2022-10-25T10:37:21.878Z,94234.03
2022-10-25T10:38:29.273Z,94233.23
2022-10-25T10:39:32.207Z,94235.13
2022-10-25T10:40:35.402Z,94229.77
2022-10-25T10:41:50.700Z,94230.19
2022-10-25T10:42:57.028Z,94231.95
2022-10-25T10:44:11.689Z,94230.30
2022-10-25T10:45:16.158Z,94231.41
2022-10-25T10:46:24.976Z,94231.19
2022-10-25T10:47:32.055Z,94230.27
2022-10-25T10:48:41.940Z,94233.48
2022-10-25T10:49:46.699Z,94226.41
2022-10-25T10:50:50.832Z,94224.70
2022-10-25T10:51:53.900Z,94226.43
2022-10-25T10:53:06.250Z,94226.36
2022-10-25T10:54:21.699Z,94229.30
2022-10-25T10:55:35.986Z,94225.22
2022-10-25T10:56:39.772Z,94227.42
2022-10-25T10:57:44.722Z,94228.84
2022-10-25T10:58:53.252Z,94226.93
2022-10-25T10:59:57.474Z,94224.14
2022-10-25T11:01:10.685Z,94228.44
2022-10-25T11:02:26.323Z,94223.69
2022-10-25T11:03:58.988Z,94223.27
2022-10-25T11:05:21.277Z,94220.73
2022-10-25T11:06:27.025Z,94211.49
2022-10-25T11:07:34.968Z,94213.72
2022-10-25T11:08:38.002Z,94215.27
2022-10-25T11:09:41.034Z,94214.38
2022-10-25T11:10:44.186Z,94211.04
2022-10-25T11:12:07.041Z,94208.92
2022-10-25T11:13:17.073Z,94208.53
2022-10-25T11:14:22.012Z,94207.39
2022-10-25T11:15:26.268Z,94211.84
2022-10-25T11:16:29.865Z,94213.20
2022-10-25T11:17:35.983Z,94208.23
2022-10-25T11:18:44.900Z,94212.80
2022-10-25T11:19:47.965Z,94202.91
2022-10-25T11:20:53.582Z,94211.57
2022-10-25T11:22:11.716Z,94216.40
2022-10-25T11:23:30.007Z,94218.50
2022-10-25T11:24:33.210Z,94207.95
2022-10-25T11:25:43.912Z,94207.95
2022-10-25T11:26:49.707Z,94208.51
2022-10-25T11:27:55.809Z,94207.22
2022-10-25T11:29:24.624Z,94205.75
2022-10-25T11:30:44.808Z,94203.47
2022-10-25T11:32:01.430Z,94200.54
2022-10-25T11:33:04.459Z,94202.55
2022-10-25T11:34:16.020Z,94199.90
2022-10-25T11:35:31.042Z,94205.41
2022-10-25T11:36:37.212Z,94200.58
2022-10-25T11:37:49.164Z,94202.38
2022-10-25T11:38:56.814Z,94201.53
2022-10-25T11:40:08.487Z,94201.82
2022-10-25T11:41:17.966Z,94193.77
2022-10-25T11:42:42.182Z,94201.02
2022-10-25T11:43:47.926Z,94199.71
2022-10-25T11:44:52.040Z,94207.69
2022-10-25T11:46:18.360Z,94204.61
2022-10-25T11:47:21.603Z,94201.86
2022-10-25T11:48:27.733Z,94203.95
2022-10-25T11:49:42.253Z,94200.04
2022-10-25T11:51:02.434Z,94203.15
2022-10-25T11:52:23.981Z,94197.92
2022-10-25T11:53:45.862Z,94196.94
2022-10-25T11:54:48.896Z,94195.98
2022-10-25T11:55:59.843Z,94196.23
2022-10-25T11:57:18.310Z,94199.51
2022-10-25T11:58:30.254Z,94202.75
2022-10-25T11:59:44.184Z,94202.01
2022-10-25T12:01:07.137Z,94198.02
2022-10-25T12:02:18.064Z,94198.65
2022-10-25T12:03:21.082Z,94189.89
2022-10-25T12:04:45.756Z,94193.27
2022-10-25T12:06:07.337Z,94197.77
2022-10-25T12:07:19.900Z,94193.38
2022-10-25T12:08:27.732Z,94196.05
2022-10-25T12:09:36.972Z,94195.95
2022-10-25T12:10:42.155Z,94193.34
2022-10-25T12:11:47.530Z,94196.46
2022-10-25T12:12:54.800Z,94198.73
2022-10-25T12:14:05.175Z,94196.36
2022-10-25T12:15:12.719Z,94191.19
2022-10-25T12:16:18.260Z,94190.64
2022-10-25T12:17:29.629Z,94188.71
2022-10-25T12:18:37.252Z,94194.11
2022-10-25T12:19:45.481Z,94189.55
2022-10-25T12:20:49.719Z,94187.58
2022-10-25T12:22:05.347Z,94194.91
2022-10-25T12:23:13.621Z,94193.33
2022-10-25T12:24:37.006Z,94189.48
2022-10-25T12:25:58.964Z,94201.41
2022-10-25T12:27:02.238Z,94198.25
2022-10-25T12:28:11.950Z,94189.35
2022-10-25T12:29:22.537Z,94196.13
2022-10-25T12:31:31.996Z,94198.98
2022-10-25T12:32:47.326Z,94195.73
2022-10-25T12:34:22.945Z,94192.08
2022-10-25T12:35:30.871Z,94183.41
2022-10-25T12:36:39.166Z,94186.11
2022-10-25T12:37:47.515Z,94186.59
2022-10-25T12:38:52.681Z,94180.00
2022-10-25T12:39:56.658Z,94185.50
2022-10-25T12:41:03.186Z,94184.62
2022-10-25T12:42:17.996Z,94180.72
2022-10-25T12:43:31.490Z,94171.46
2022-10-25T12:44:43.803Z,94175.38
2022-10-25T12:45:49.526Z,94177.51
2022-10-25T12:47:07.790Z,94172.30
2022-10-25T12:48:13.922Z,94172.14
2022-10-25T12:49:39.407Z,94171.59
2022-10-25T12:51:01.301Z,94169.59
2022-10-25T12:52:23.387Z,94172.13
2022-10-25T12:53:45.107Z,94177.93
2022-10-25T12:54:57.413Z,94177.08
2022-10-25T12:56:25.232Z,94173.89
2022-10-25T12:57:36.945Z,94167.90
2022-10-25T12:58:51.986Z,94170.05
2022-10-25T13:00:15.420Z,94167.24
2022-10-25T13:01:18.885Z,94163.08
2022-10-25T13:02:27.974Z,94167.89
2022-10-25T13:03:31.123Z,94171.33
2022-10-25T13:04:34.220Z,94175.92
2022-10-25T13:05:52.083Z,94180.75
2022-10-25T13:06:56.462Z,94177.86
2022-10-25T13:08:01.904Z,94178.79
2022-10-25T13:09:07.396Z,94182.82
2022-10-25T13:10:21.664Z,94180.17
2022-10-25T13:11:32.533Z,94171.73
2022-10-25T13:12:35.583Z,94176.75
2022-10-25T13:13:49.938Z,94180.13
2022-10-25T13:14:56.068Z,94181.91